Aérodrome :
LOGIN :

S'inscrire | Disclaimer

   EN    FR    IT 

 










Légende :    VFR   VFR Marginal   IFR   IFR Intensif   IFR Très Intensif
Visi : 
Plafond : 
>= 8 km
>= 3000ft
5 à 8 km
1000 à 3000 ft
1500m à 5 km
500 à 1000 ft
800 à 1500m
200 à 500 ft
< 800m
< 200 ft
Symboles :   Orages  Brouillard  Fortes neiges  Fortes précipitations  Vent > 20 kt
SIGMETs :   Divers  Orages  Givrage  Turbulence  Onde Orograph.  Cendres Volcan.






- Altitude de l'aérodrome : 1276 ft
- Code IATA : STR


EDDS - Stuttgart

DERNIER METAR :
  • 151150Z 24014G27KT 170V290 9999 FEW034 14/07 Q1005 NOSIG

METARs EXPIRÉS :
  • 151120Z 23016G26KT 200V260 9999 FEW030 SCT045 13/07 Q1005 NOSIG
  • 151050Z 23016G34KT 180V270 9999 FEW030 BKN045 13/07 Q1005 NOSIG
  • 151020Z 23017G32KT 190V260 9999 FEW030 13/06 Q1005 TEMPO 4500 RA BKN012
  • 150950Z 23016G37KT 180V260 9999 FEW030 14/06 Q1005 TEMPO 4500 RA BKN012
  • 150920Z 23015G27KT 190V270 9999 FEW030 14/06 Q1004 NOSIG

TAF TAF EDDS
Valide du 15 à 12h jusqu'au 16 à 12h UTC


151100Z 1512/1612 23015G25KT 9999 BKN030
BECMG 1512/1516 24008KT
TEMPO 1512/1522 4500 RA BKN014
BECMG 1518/1521 VRB03KT



MET'MAP, la Météo Aéronautique d'un coup d'oeil ! - Copyright ORBIFLY Décembre 2007 - Disclaimer

ORBIFLY MET'MAP TEAM :

Programmation & Développement : Alexandra Zaïnal
Sur une idée originale de : Baudouin d'Aumeries
Assistance à la programmation : Marc-Olivier Méhu
Soutien technique & logistique : Manuel Goepfert

Contact : metmap@orbifly.com




SOURCES & CREDITS :

   NOAA